Time,TemperatureF,DewpointF,PressureIn,WindDirection,WindDirectionDegrees,WindSpeedMPH,WindSpeedGustMPH,Humidity,HourlyPrecipIn,Conditions,Clouds,dailyrainin,SoftwareType,DateUTC
2013-07-26 10:15:00,63.0,62.4,29.59,ENE,67,0.0,0.0,98,0.00,,,0.00,Weather View 32 v70,2013-07-26 14:15:00,
2013-07-26 10:20:00,63.0,62.4,29.59,East,90,0.0,1.0,98,0.00,,,0.00,Weather View 32 v70,2013-07-26 14:20:00,
2013-07-26 10:25:00,63.0,62.4,29.59,SW,225,0.0,1.0,98,0.00,,,0.00,Weather View 32 v70,2013-07-26 14:25:00,
2013-07-26 10:30:00,63.0,62.4,29.59,West,270,0.0,2.0,98,0.00,,,0.00,Weather View 32 v70,2013-07-26 14:30:00,
2013-07-26 10:35:00,63.0,62.4,29.58,NW,315,0.0,4.0,98,0.00,,,0.00,Weather View 32 v70,2013-07-26 14:35:00,
2013-07-26 10:40:00,63.0,62.4,29.58,North,360,0.0,4.0,98,0.00,,,0.00,Weather View 32 v70,2013-07-26 14:40:00,
2013-07-26 10:45:00,63.0,62.4,29.58,East,90,0.0,4.0,98,0.00,,,0.00,Weather View 32 v70,2013-07-26 14:45:00,
2013-07-26 10:50:00,64.0,63.4,29.58,SE,135,0.0,4.0,98,0.00,,,0.00,Weather View 32 v70,2013-07-26 14:50:00,
2013-07-26 10:55:00,64.0,63.4,29.57,SW,225,1.0,5.0,98,0.00,,,0.00,Weather View 32 v70,2013-07-26 14:55:00,
2013-07-26 11:00:00,64.0,63.4,29.57,SE,135,1.0,5.0,98,0.00,,,0.00,Weather View 32 v70,2013-07-26 15:00:00,
2013-07-26 11:05:00,64.0,63.4,29.57,SE,135,0.0,5.0,98,0.00,,,0.00,Weather View 32 v70,2013-07-26 15:05:00,
2013-07-26 11:10:00,64.0,63.4,29.57,SE,135,1.0,5.0,98,0.00,,,0.00,Weather View 32 v70,2013-07-26 15:10:00,
2013-07-26 11:15:00,64.0,63.4,29.57,South,180,2.0,5.0,98,0.00,,,0.00,Weather View 32 v70,2013-07-26 15:15:00,
2013-07-26 11:20:00,65.0,64.7,29.57,South,180,0.0,5.0,99,0.00,,,0.00,Weather View 32 v70,2013-07-26 15:20:00,
2013-07-26 11:25:00,65.0,64.7,29.57,SW,225,1.0,5.0,99,0.00,,,0.00,Weather View 32 v70,2013-07-26 15:25:00,
2013-07-26 11:30:00,65.0,64.7,29.57,NW,315,0.0,5.0,99,0.00,,,0.00,Weather View 32 v70,2013-07-26 15:30:00,
2013-07-26 11:35:00,65.0,64.7,29.57,West,270,0.0,6.0,99,0.00,,,0.00,Weather View 32 v70,2013-07-26 15:35:00,
2013-07-26 11:40:00,65.0,64.7,29.57,South,180,0.0,6.0,99,0.00,,,0.00,Weather View 32 v70,2013-07-26 15:40:00,
2013-07-26 11:45:00,65.0,64.7,29.57,NW,315,0.0,6.0,99,0.00,,,0.00,Weather View 32 v70,2013-07-26 15:45:00,
2013-07-26 11:50:00,65.0,64.7,29.57,South,180,0.0,6.0,99,0.00,,,0.00,Weather View 32 v70,2013-07-26 15:50:00,
2013-07-26 11:55:00,65.0,64.7,29.57,SE,135,0.0,6.0,99,0.00,,,0.00,Weather View 32 v70,2013-07-26 15:55:00,
2013-07-26 12:00:00,65.0,64.7,29.57,WSW,247,0.0,6.0,99,0.00,,,0.00,Weather View 32 v70,2013-07-26 16:00:00,
2013-07-26 12:05:00,66.0,65.7,29.56,SE,135,0.0,6.0,99,0.00,,,0.00,Weather View 32 v70,2013-07-26 16:05:00,
2013-07-26 12:10:00,66.0,65.7,29.56,NE,45,0.0,6.0,99,0.00,,,0.00,Weather View 32 v70,2013-07-26 16:10:00,
2013-07-26 12:15:00,66.0,65.7,29.56,East,90,0.0,6.0,99,0.00,,,0.00,Weather View 32 v70,2013-07-26 16:15:00,
2013-07-26 12:20:00,66.0,65.7,29.56,SE,135,0.0,6.0,99,0.00,,,0.00,Weather View 32 v70,2013-07-26 16:20:00,
2013-07-26 12:25:00,67.0,66.7,29.55,West,270,0.0,6.0,99,0.00,,,0.00,Weather View 32 v70,2013-07-26 16:25:00,
2013-07-26 12:31:00,67.0,66.7,29.55,South,180,0.0,6.0,99,0.00,,,0.00,Weather View 32 v70,2013-07-26 16:31:00,
2013-07-26 12:36:00,67.0,65.5,29.55,South,180,2.0,6.0,95,0.00,,,0.00,Weather View 32 v70,2013-07-26 16:36:00,
2013-07-26 12:41:00,68.0,66.5,29.55,SW,225,1.0,6.0,95,0.00,,,0.00,Weather View 32 v70,2013-07-26 16:41:00,
2013-07-26 12:46:00,68.0,66.5,29.55,East,90,0.0,6.0,95,0.00,,,0.00,Weather View 32 v70,2013-07-26 16:46:00,
2013-07-26 12:51:00,67.0,65.2,29.55,SSE,157,0.0,6.0,94,0.00,,,0.00,Weather View 32 v70,2013-07-26 16:51:00,
2013-07-26 12:56:00,67.0,65.2,29.55,ESE,112,0.0,6.0,94,0.00,,,0.00,Weather View 32 v70,2013-07-26 16:56:00,
2013-07-26 13:01:00,67.0,66.1,29.55,West,270,0.0,6.0,97,0.00,,,0.00,Weather View 32 v70,2013-07-26 17:01:00,
2013-07-26 13:06:00,67.0,66.1,29.55,West,270,0.0,6.0,97,0.00,,,0.00,Weather View 32 v70,2013-07-26 17:06:00,
2013-07-26 13:11:00,67.0,65.2,29.55,East,90,0.0,6.0,94,0.00,,,0.00,Weather View 32 v70,2013-07-26 17:11:00,
2013-07-26 13:16:00,67.0,65.5,29.55,NE,45,1.0,6.0,95,0.00,,,0.00,Weather View 32 v70,2013-07-26 17:16:00,
2013-07-26 13:21:00,67.0,65.8,29.55,North,360,0.0,6.0,96,0.00,,,0.00,Weather View 32 v70,2013-07-26 17:21:00,
2013-07-26 13:26:00,68.0,66.5,29.55,East,90,1.0,6.0,95,0.00,,,0.00,Weather View 32 v70,2013-07-26 17:26:00,
2013-07-26 13:31:00,68.0,67.1,29.55,SE,135,1.0,6.0,97,0.00,,,0.00,Weather View 32 v70,2013-07-26 17:31:00,
2013-07-26 13:36:00,68.0,66.5,29.54,South,180,0.0,6.0,95,0.00,,,0.00,Weather View 32 v70,2013-07-26 17:36:00,
2013-07-26 13:41:00,68.0,65.6,29.54,East,90,1.0,6.0,92,0.00,,,0.00,Weather View 32 v70,2013-07-26 17:41:00,
2013-07-26 13:46:00,68.0,65.9,29.53,ESE,112,0.0,6.0,93,0.00,,,0.00,Weather View 32 v70,2013-07-26 17:46:00,
2013-07-26 13:51:00,69.0,66.6,29.53,South,180,1.0,6.0,92,0.00,,,0.00,Weather View 32 v70,2013-07-26 17:51:00,
2013-07-26 13:57:00,69.0,66.6,29.53,East,90,1.0,6.0,92,0.00,,,0.00,Weather View 32 v70,2013-07-26 17:57:00,
2013-07-26 14:02:00,69.0,66.3,29.53,West,270,0.0,6.0,91,0.00,,,0.00,Weather View 32 v70,2013-07-26 18:02:00,
2013-07-26 14:07:00,70.0,67.9,29.53,NW,315,0.0,6.0,93,0.00,,,0.00,Weather View 32 v70,2013-07-26 18:07:00,
2013-07-26 14:12:00,69.0,66.9,29.53,South,180,0.0,6.0,93,0.00,,,0.00,Weather View 32 v70,2013-07-26 18:12:00,
2013-07-26 14:17:00,69.0,65.9,29.53,SE,135,0.0,6.0,90,0.00,,,0.00,Weather View 32 v70,2013-07-26 18:17:00,
2013-07-26 14:22:00,69.0,66.3,29.53,SE,135,0.0,6.0,91,0.00,,,0.00,Weather View 32 v70,2013-07-26 18:22:00,
2013-07-26 14:27:00,69.0,65.9,29.53,NW,315,2.0,6.0,90,0.00,,,0.00,Weather View 32 v70,2013-07-26 18:27:00,
2013-07-26 14:32:00,68.0,64.9,29.53,North,360,1.0,7.0,90,0.00,,,0.00,Weather View 32 v70,2013-07-26 18:32:00,
2013-07-26 14:37:00,68.0,65.6,29.54,SW,225,3.0,7.0,92,0.00,,,0.00,Weather View 32 v70,2013-07-26 18:37:00,
2013-07-26 14:42:00,68.0,64.9,29.54,SSW,202,0.0,7.0,90,0.00,,,0.00,Weather View 32 v70,2013-07-26 18:42:00,
2013-07-26 14:47:00,68.0,65.6,29.53,WSW,247,1.0,7.0,92,0.00,,,0.00,Weather View 32 v70,2013-07-26 18:47:00,
2013-07-26 14:52:00,68.0,65.3,29.53,North,360,1.0,7.0,91,0.00,,,0.00,Weather View 32 v70,2013-07-26 18:52:00,
2013-07-26 14:57:00,68.0,65.6,29.53,East,90,0.0,7.0,92,0.00,,,0.00,Weather View 32 v70,2013-07-26 18:57:00,
2013-07-26 15:02:00,68.0,65.3,29.53,ESE,112,0.0,7.0,91,0.00,,,0.00,Weather View 32 v70,2013-07-26 19:02:00,
2013-07-26 15:07:00,68.0,64.9,29.53,South,180,0.0,7.0,90,0.00,,,0.00,Weather View 32 v70,2013-07-26 19:07:00,
2013-07-26 15:12:00,69.0,66.3,29.53,SE,135,0.0,7.0,91,0.00,,,0.00,Weather View 32 v70,2013-07-26 19:12:00,
2013-07-26 15:17:00,69.0,65.0,29.53,SW,225,1.0,7.0,87,0.00,,,0.00,Weather View 32 v70,2013-07-26 19:17:00,
2013-07-26 15:22:00,68.0,64.0,29.53,SE,135,0.0,7.0,87,0.00,,,0.00,Weather View 32 v70,2013-07-26 19:22:00,
2013-07-26 15:27:00,68.0,64.9,29.54,West,270,0.0,7.0,90,0.00,,,0.00,Weather View 32 v70,2013-07-26 19:27:00,
2013-07-26 15:32:00,68.0,64.9,29.54,SW,225,0.0,7.0,90,0.00,,,0.00,Weather View 32 v70,2013-07-26 19:32:00,
2013-07-26 15:37:00,68.0,64.9,29.54,West,270,0.0,7.0,90,0.00,,,0.00,Weather View 32 v70,2013-07-26 19:37:00,
2013-07-26 15:42:00,68.0,65.6,29.54,West,270,5.0,7.0,92,0.00,,,0.00,Weather View 32 v70,2013-07-26 19:42:00,
2013-07-26 15:47:00,68.0,66.5,29.54,WSW,247,0.0,7.0,95,0.00,,,0.00,Weather View 32 v70,2013-07-26 19:47:00,
2013-07-26 15:52:00,68.0,66.8,29.54,North,360,0.0,7.0,96,0.00,,,0.00,Weather View 32 v70,2013-07-26 19:52:00,
2013-07-26 15:57:00,68.0,66.5,29.54,SW,225,1.0,7.0,95,0.00,,,0.00,Weather View 32 v70,2013-07-26 19:57:00,
2013-07-26 16:02:00,68.0,66.8,29.54,SSW,202,1.0,7.0,96,0.00,,,0.00,Weather View 32 v70,2013-07-26 20:02:00,
2013-07-26 16:08:00,68.0,66.2,29.54,WSW,247,1.0,7.0,94,0.00,,,0.00,Weather View 32 v70,2013-07-26 20:08:00,
2013-07-26 16:13:00,68.0,67.1,29.54,West,270,0.0,7.0,97,0.00,,,0.00,Weather View 32 v70,2013-07-26 20:13:00,
2013-07-26 16:18:00,68.0,67.1,29.54,NE,45,0.0,7.0,97,0.00,,,0.00,Weather View 32 v70,2013-07-26 20:18:00,
2013-07-26 16:23:00,68.0,66.8,29.54,NW,315,3.0,6.0,96,0.00,,,0.00,Weather View 32 v70,2013-07-26 20:23:00,
2013-07-26 16:28:00,68.0,66.8,29.54,NW,315,2.0,6.0,96,0.00,,,0.00,Weather View 32 v70,2013-07-26 20:28:00,
2013-07-26 16:33:00,68.0,67.4,29.54,West,270,2.0,6.0,98,0.00,,,0.00,Weather View 32 v70,2013-07-26 20:33:00,
2013-07-26 16:38:00,68.0,67.4,29.54,NW,315,2.0,6.0,98,0.00,,,0.00,Weather View 32 v70,2013-07-26 20:38:00,
2013-07-26 16:43:00,68.0,67.7,29.54,West,270,2.0,6.0,99,0.00,,,0.00,Weather View 32 v70,2013-07-26 20:43:00,
2013-07-26 16:48:00,68.0,67.7,29.53,SW,225,0.0,6.0,99,0.00,,,0.00,Weather View 32 v70,2013-07-26 20:48:00,
2013-07-26 16:53:00,68.0,67.7,29.53,West,270,0.0,6.0,99,0.00,,,0.00,Weather View 32 v70,2013-07-26 20:53:00,
2013-07-26 16:58:00,68.0,67.7,29.53,NE,45,0.0,6.0,99,0.00,,,0.00,Weather View 32 v70,2013-07-26 20:58:00,
2013-07-26 17:03:00,68.0,67.7,29.53,West,270,0.0,6.0,99,0.00,,,0.00,Weather View 32 v70,2013-07-26 21:03:00,
2013-07-26 17:08:00,68.0,67.7,29.53,East,90,0.0,6.0,99,0.00,,,0.00,Weather View 32 v70,2013-07-26 21:08:00,
2013-07-26 17:13:00,68.0,67.7,29.53,West,270,0.0,6.0,99,0.00,,,0.00,Weather View 32 v70,2013-07-26 21:13:00,
2013-07-26 17:18:00,68.0,67.7,29.53,West,270,0.0,6.0,99,0.00,,,0.00,Weather View 32 v70,2013-07-26 21:18:00,
2013-07-26 17:23:00,68.0,67.7,29.53,West,270,0.0,6.0,99,0.00,,,0.00,Weather View 32 v70,2013-07-26 21:23:00,
2013-07-26 17:28:00,68.0,67.7,29.53,West,270,0.0,6.0,99,0.00,,,0.00,Weather View 32 v70,2013-07-26 21:28:00,
2013-07-26 21:07:00,65.0,64.7,29.56,West,270,0.0,0.0,99,0.00,,,0.00,Weather View 32 v70,2013-07-27 01:07:00,
2013-07-26 21:12:00,65.0,64.7,29.56,West,270,0.0,0.0,99,0.00,,,0.00,Weather View 32 v70,2013-07-27 01:12:00,
2013-07-26 21:17:00,65.0,64.7,29.57,West,270,0.0,0.0,99,0.00,,,0.00,Weather View 32 v70,2013-07-27 01:17:00,
2013-07-26 21:22:00,65.0,64.7,29.57,West,270,2.0,2.0,99,0.00,,,0.00,Weather View 32 v70,2013-07-27 01:22:00,
2013-07-26 21:27:00,65.0,64.7,29.57,West,270,0.0,2.0,99,0.00,,,0.00,Weather View 32 v70,2013-07-27 01:27:00,
2013-07-26 21:32:00,65.0,64.7,29.57,West,270,3.0,4.0,99,0.00,,,0.00,Weather View 32 v70,2013-07-27 01:32:00,
2013-07-26 21:37:00,65.0,64.7,29.57,WNW,292,1.0,5.0,99,0.00,,,0.00,Weather View 32 v70,2013-07-27 01:37:00,
2013-07-26 21:42:00,65.0,64.7,29.57,West,270,2.0,5.0,99,0.00,,,0.00,Weather View 32 v70,2013-07-27 01:42:00,
2013-07-26 21:47:00,65.0,64.7,29.57,WNW,292,2.0,5.0,99,0.00,,,0.00,Weather View 32 v70,2013-07-27 01:47:00,
2013-07-26 21:52:00,65.0,64.7,29.57,NW,315,3.0,5.0,99,0.00,,,0.00,Weather View 32 v70,2013-07-27 01:52:00,
2013-07-26 21:57:00,65.0,64.7,29.57,NW,315,3.0,5.0,99,0.00,,,0.00,Weather View 32 v70,2013-07-27 01:57:00,
2013-07-26 22:02:00,65.0,64.7,29.57,WNW,292,2.0,6.0,99,0.00,,,0.00,Weather View 32 v70,2013-07-27 02:02:00,
2013-07-26 22:07:00,65.0,64.7,29.57,WNW,292,3.0,6.0,99,0.00,,,0.00,Weather View 32 v70,2013-07-27 02:07:00,
2013-07-26 22:12:00,65.0,64.7,29.57,West,270,4.0,6.0,99,0.00,,,0.00,Weather View 32 v70,2013-07-27 02:12:00,
2013-07-26 22:17:00,65.0,64.7,29.57,West,270,3.0,6.0,99,0.00,,,0.00,Weather View 32 v70,2013-07-27 02:17:00,
2013-07-26 22:22:00,65.0,64.7,29.57,West,270,3.0,7.0,99,0.00,,,0.00,Weather View 32 v70,2013-07-27 02:22:00,
2013-07-26 22:27:00,65.0,64.7,29.58,NW,315,4.0,7.0,99,0.00,,,0.00,Weather View 32 v70,2013-07-27 02:27:00,
2013-07-26 22:32:00,64.0,63.4,29.58,West,270,3.0,7.0,98,0.00,,,0.00,Weather View 32 v70,2013-07-27 02:32:00,
2013-07-26 22:37:00,64.0,63.4,29.58,West,270,2.0,7.0,98,0.00,,,0.00,Weather View 32 v70,2013-07-27 02:37:00,
2013-07-26 22:42:00,64.0,63.4,29.58,West,270,2.0,7.0,98,0.00,,,0.00,Weather View 32 v70,2013-07-27 02:42:00,
2013-07-26 22:47:00,64.0,63.4,29.58,West,270,4.0,7.0,98,0.00,,,0.00,Weather View 32 v70,2013-07-27 02:47:00,
2013-07-26 22:52:00,64.0,63.4,29.58,West,270,3.0,7.0,98,0.00,,,0.00,Weather View 32 v70,2013-07-27 02:52:00,
2013-07-26 22:57:00,64.0,63.4,29.58,West,270,3.0,7.0,98,0.00,,,0.00,Weather View 32 v70,2013-07-27 02:57:00,
2013-07-26 23:02:00,64.0,63.4,29.58,WNW,292,3.0,7.0,98,0.00,,,0.00,Weather View 32 v70,2013-07-27 03:02:00,
2013-07-26 23:07:00,64.0,63.4,29.58,West,270,3.0,7.0,98,0.00,,,0.00,Weather View 32 v70,2013-07-27 03:07:00,
2013-07-26 23:12:00,64.0,63.4,29.58,West,270,3.0,7.0,98,0.00,,,0.00,Weather View 32 v70,2013-07-27 03:12:00,
2013-07-26 23:17:00,64.0,63.4,29.58,West,270,4.0,7.0,98,0.00,,,0.00,Weather View 32 v70,2013-07-27 03:17:00,
2013-07-26 23:22:00,64.0,63.4,29.58,West,270,3.0,6.0,98,0.00,,,0.00,Weather View 32 v70,2013-07-27 03:22:00,
2013-07-26 23:27:00,64.0,63.4,29.58,WNW,292,5.0,6.0,98,0.00,,,0.00,Weather View 32 v70,2013-07-27 03:27:00,
2013-07-26 23:32:00,64.0,63.4,29.58,West,270,2.0,6.0,98,0.00,,,0.00,Weather View 32 v70,2013-07-27 03:32:00,
2013-07-26 23:37:00,63.0,62.4,29.58,West,270,2.0,6.0,98,0.00,,,0.00,Weather View 32 v70,2013-07-27 03:37:00,
2013-07-26 23:42:00,63.0,62.4,29.58,WNW,292,6.0,6.0,98,0.00,,,0.00,Weather View 32 v70,2013-07-27 03:42:00,
2013-07-26 23:47:00,63.0,62.4,29.59,West,270,4.0,7.0,98,0.00,,,0.00,Weather View 32 v70,2013-07-27 03:47:00,
2013-07-26 23:52:00,63.0,62.4,29.59,West,270,3.0,7.0,98,0.00,,,0.00,Weather View 32 v70,2013-07-27 03:52:00,
2013-07-26 23:57:00,63.0,62.4,29.59,West,270,1.0,7.0,98,0.00,,,0.00,Weather View 32 v70,2013-07-27 03:57:00,